Norwegian Crown — C6II4 — position and weather

sailwx.info

Track history (hours):
 
Tides and Currents Weather Stations Pressure Air Temp Water Temp Dewpoint Dewpoint Depression Visibility Wind Speed Wind Dir Waves Ship Positions

Norwegian Crown

Operator: Norwegian Cruise Line

Last reported at 2016-Jul-30 18:33 UTC. Time now 2016-Jul-30 18:54 UTC.
Position N 55°02' W 001°19'.

Type: Ship. MMSI: 308785000.

Date/timePositionNaut miles runAvg speedWind from/ knotsBaromVisibWave heightAir tempDewpointWater temp
2016-Jul-30 18:33N 55°02' W 001°19'1010.3
2016-Jul-30 17:33N 55°06' W 001°03'1414.4
2016-Jul-30 16:34N 55°00' W 001°26'1 0.9
2016-Jul-30 15:30N 54°60' W 001°27'0 0.0
2016-Jul-30 14:24N 54°60' W 001°27'0 0.0
2016-Jul-30 13:30N 54°60' W 001°27'0 0.0
2016-Jul-30 12:30N 54°60' W 001°27'0 0.0
2016-Jul-30 11:30N 54°60' W 001°27'0 0.0
2016-Jul-30 10:30N 54°60' W 001°27'0 0.0
2016-Jul-30 09:30N 54°60' W 001°27'0 0.0
2016-Jul-30 08:30N 54°60' W 001°27'0 0.0
2016-Jul-30 07:30N 54°60' W 001°27'0 0.0
2016-Jul-30 06:30N 54°60' W 001°27'3 3.0
2016-Jul-30 05:33N 55°01' W 001°23'1514.7
2016-Jul-30 04:33N 55°13' W 001°08'1817.2
2016-Jul-30 03:32N 55°29' W 000°55'  
2016-Jul-25 01:08N 59°60' E 004°33'911.2
2016-Jul-25 00:18N 59°50' E 004°31'2011.5
2016-Jul-24 22:32N 59°30' E 004°31'1211.8
2016-Jul-24 21:33N 59°19' E 004°37'1211.6
2016-Jul-24 20:33N 59°10' E 004°50'1313.4
2016-Jul-24 19:33N 59°06' E 005°15'1615.7
2016-Jul-24 18:34N 59°08' E 005°46'1514.8
2016-Jul-24 17:33N 58°55' E 006°01'15 6.6
2016-Jul-24 15:21N 59°01' E 006°27'1213.5
2016-Jul-24 14:28N 58°56' E 006°06'9 9.6
2016-Jul-24 13:34N 58°60' E 005°51'10 9.5
2016-Jul-24 12:34N 59°00' E 005°33'1212.3
2016-Jul-24 11:33N 58°49' E 005°21'1716.9
2016-Jul-24 10:33N 58°37' E 004°58'1716.7
2016-Jul-24 09:33N 58°25' E 004°36'1716.8
2016-Jul-24 08:33N 58°13' E 004°14'1717.0
2016-Jul-24 07:33N 58°01' E 003°52'1717.0
2016-Jul-24 06:33N 57°48' E 003°30'1716.8
2016-Jul-24 05:33N 57°36' E 003°08'1716.5
2016-Jul-24 04:32N 57°24' E 002°47'4816.2
2016-Jul-24 01:33N 56°49' E 001°45'1716.5
2016-Jul-24 00:33N 56°37' E 001°25'1716.6
2016-Jul-23 23:33N 56°25' E 001°04'1716.8
2016-Jul-23 22:33N 56°13' E 000°43'1716.9
2016-Jul-23 21:33N 56°01' E 000°22'1716.9
2016-Jul-23 20:33N 55°48' E 000°01'1716.6
2016-Jul-23 19:33N 55°36' W 000°19'1716.5
2016-Jul-23 18:33N 55°24' W 000°38'1616.3
2016-Jul-23 17:33N 55°12' W 000°59'1616.2
2016-Jul-23 16:33N 55°02' W 001°20'4 4.2
2016-Jul-23 15:31N 54°60' W 001°27'0 0.0
2016-Jul-23 14:31N 54°60' W 001°27'0 0.0
2016-Jul-23 13:31N 54°60' W 001°27'0 0.0
2016-Jul-23 12:31N 54°60' W 001°27'0 0.0
2016-Jul-23 11:31N 54°60' W 001°27'0 0.0
2016-Jul-23 10:31N 54°60' W 001°27'0 0.0
2016-Jul-23 09:31N 54°60' W 001°27'0 0.0
2016-Jul-23 08:31N 54°60' W 001°27'0 0.0
2016-Jul-23 07:31N 54°60' W 001°27'0 0.0
2016-Jul-23 06:28N 54°60' W 001°27'0 0.0
2016-Jul-23 04:28N 54°60' W 001°27'1 0.8
2016-Jul-23 03:33N 55°00' W 001°26'1212.5
2016-Jul-23 02:33N 55°08' W 001°09'1717.0
2016-Jul-23 01:33N 55°24' W 000°57'1716.5
2016-Jul-23 00:31N 55°40' W 000°46'  
Track history (hours):
 
Tides and Currents Weather Stations Pressure Air Temp Water Temp Dewpoint Dewpoint Depression Visibility Wind Speed Wind Dir Waves Ship Positions

Norwegian Crown

Operator: Norwegian Cruise Line

Last reported at 2016-Jul-30 18:33 UTC. Time now 2016-Jul-30 18:54 UTC.
Position N 55°02' W 001°19'.

Type: Ship. MMSI: 308785000.

Date/timePositionNaut miles runAvg speedWind from/ knotsBaromVisibWave heightAir tempDewpointWater temp
2016-Jul-30 18:33N 55°02' W 001°19'1010.3
2016-Jul-30 17:33N 55°06' W 001°03'1414.4
2016-Jul-30 16:34N 55°00' W 001°26'1 0.9
2016-Jul-30 15:30N 54°60' W 001°27'0 0.0
2016-Jul-30 14:24N 54°60' W 001°27'0 0.0
2016-Jul-30 13:30N 54°60' W 001°27'0 0.0
2016-Jul-30 12:30N 54°60' W 001°27'0 0.0
2016-Jul-30 11:30N 54°60' W 001°27'0 0.0
2016-Jul-30 10:30N 54°60' W 001°27'0 0.0
2016-Jul-30 09:30N 54°60' W 001°27'0 0.0
2016-Jul-30 08:30N 54°60' W 001°27'0 0.0
2016-Jul-30 07:30N 54°60' W 001°27'0 0.0
2016-Jul-30 06:30N 54°60' W 001°27'3 3.0
2016-Jul-30 05:33N 55°01' W 001°23'1514.7
2016-Jul-30 04:33N 55°13' W 001°08'1817.2
2016-Jul-30 03:32N 55°29' W 000°55'  
2016-Jul-25 01:08N 59°60' E 004°33'911.2
2016-Jul-25 00:18N 59°50' E 004°31'2011.5
2016-Jul-24 22:32N 59°30' E 004°31'1211.8
2016-Jul-24 21:33N 59°19' E 004°37'1211.6
2016-Jul-24 20:33N 59°10' E 004°50'1313.4
2016-Jul-24 19:33N 59°06' E 005°15'1615.7
2016-Jul-24 18:34N 59°08' E 005°46'1514.8
2016-Jul-24 17:33N 58°55' E 006°01'15 6.6
2016-Jul-24 15:21N 59°01' E 006°27'1213.5
2016-Jul-24 14:28N 58°56' E 006°06'9 9.6
2016-Jul-24 13:34N 58°60' E 005°51'10 9.5
2016-Jul-24 12:34N 59°00' E 005°33'1212.3
2016-Jul-24 11:33N 58°49' E 005°21'1716.9
2016-Jul-24 10:33N 58°37' E 004°58'1716.7
2016-Jul-24 09:33N 58°25' E 004°36'1716.8
2016-Jul-24 08:33N 58°13' E 004°14'1717.0
2016-Jul-24 07:33N 58°01' E 003°52'1717.0
2016-Jul-24 06:33N 57°48' E 003°30'1716.8
2016-Jul-24 05:33N 57°36' E 003°08'1716.5
2016-Jul-24 04:32N 57°24' E 002°47'4816.2
2016-Jul-24 01:33N 56°49' E 001°45'1716.5
2016-Jul-24 00:33N 56°37' E 001°25'1716.6
2016-Jul-23 23:33N 56°25' E 001°04'1716.8
2016-Jul-23 22:33N 56°13' E 000°43'1716.9
2016-Jul-23 21:33N 56°01' E 000°22'1716.9
2016-Jul-23 20:33N 55°48' E 000°01'1716.6
2016-Jul-23 19:33N 55°36' W 000°19'1716.5
2016-Jul-23 18:33N 55°24' W 000°38'1616.3
2016-Jul-23 17:33N 55°12' W 000°59'1616.2
2016-Jul-23 16:33N 55°02' W 001°20'4 4.2
2016-Jul-23 15:31N 54°60' W 001°27'0 0.0
2016-Jul-23 14:31N 54°60' W 001°27'0 0.0
2016-Jul-23 13:31N 54°60' W 001°27'0 0.0
2016-Jul-23 12:31N 54°60' W 001°27'0 0.0
2016-Jul-23 11:31N 54°60' W 001°27'0 0.0
2016-Jul-23 10:31N 54°60' W 001°27'0 0.0
2016-Jul-23 09:31N 54°60' W 001°27'0 0.0
2016-Jul-23 08:31N 54°60' W 001°27'0 0.0
2016-Jul-23 07:31N 54°60' W 001°27'0 0.0
2016-Jul-23 06:28N 54°60' W 001°27'0 0.0
2016-Jul-23 04:28N 54°60' W 001°27'1 0.8
2016-Jul-23 03:33N 55°00' W 001°26'1212.5
2016-Jul-23 02:33N 55°08' W 001°09'1717.0
2016-Jul-23 01:33N 55°24' W 000°57'1716.5
2016-Jul-23 00:31N 55°40' W 000°46'  

Dump ship's entire track history